Time;durP1;ratioP1;P1;durP2;ratioP2;P2;SDS_P1;SDS_P2;PMS_P1;PMS_P2;Temp;Humidity;BMP_temperature;BMP_pressure;BME280_temperature;BME280_humidity;BME280_pressure;Samples;Min_cycle;Max_cycle;Signal;HPM_P1;HPM_P2
2022/05/08 00:00:31;;;;;;;11.93;5.32;;;14.70;99.90;;;;;;5012714;28;20117;-72
2022/05/08 00:02:58;;;;;;;11.05;6.28;;;14.50;99.90;;;;;;5012488;28;20575;-71
2022/05/08 00:05:25;;;;;;;12.05;5.72;;;14.60;99.90;;;;;;5012950;28;20109;-72
2022/05/08 00:07:50;;;;;;;16.75;7.30;;;14.50;99.90;;;;;;5012670;28;20030;-67
2022/05/08 00:10:17;;;;;;;11.85;7.07;;;14.50;99.90;;;;;;5012719;28;20026;-69
2022/05/08 00:12:43;;;;;;;17.60;9.65;;;14.50;99.90;;;;;;5012561;28;20057;-69
2022/05/08 00:15:09;;;;;;;16.67;8.70;;;14.60;99.90;;;;;;5012749;28;20022;-68
2022/05/08 00:17:35;;;;;;;15.52;8.68;;;14.50;99.90;;;;;;5012386;28;20037;-69
2022/05/08 00:20:03;;;;;;;20.50;8.57;;;14.40;99.90;;;;;;5011059;28;20045;-69
2022/05/08 00:22:28;;;;;;;18.02;7.88;;;14.20;99.90;;;;;;5012141;28;20025;-69
2022/05/08 00:24:55;;;;;;;14.38;8.20;;;14.10;99.90;;;;;;5012386;28;20440;-68
2022/05/08 00:27:21;;;;;;;15.93;7.40;;;14.10;99.90;;;;;;5012137;28;20471;-69
2022/05/08 00:29:47;;;;;;;14.80;7.18;;;14.10;99.90;;;;;;5011156;28;20029;-72
2022/05/08 00:32:13;;;;;;;13.95;7.35;;;14.10;99.90;;;;;;5012389;28;20033;-71
2022/05/08 00:34:41;;;;;;;15.38;7.22;;;14.20;99.90;;;;;;5012146;28;20030;-71
2022/05/08 00:37:07;;;;;;;13.82;6.40;;;14.20;99.90;;;;;;5012354;28;20384;-68
2022/05/08 00:39:33;;;;;;;12.60;5.78;;;14.20;99.90;;;;;;5012364;28;20050;-69
2022/05/08 00:42:02;;;;;;;11.60;6.13;;;14.20;99.90;;;;;;5012045;28;20065;-72
2022/05/08 00:44:28;;;;;;;17.65;9.18;;;14.20;99.90;;;;;;5012131;28;20172;-72
2022/05/08 00:46:54;;;;;;;34.70;17.35;;;14.10;99.90;;;;;;5011808;28;20481;-71
2022/05/08 00:49:19;;;;;;;36.60;16.88;;;14.20;99.90;;;;;;5012000;28;20034;-71
2022/05/08 00:51:48;;;;;;;15.75;8.15;;;14.10;99.90;;;;;;5012156;28;20030;-72
2022/05/08 00:54:15;;;;;;;17.15;8.43;;;14.10;99.90;;;;;;5012064;28;20025;-71
2022/05/08 00:56:41;;;;;;;10.93;6.25;;;14.10;99.90;;;;;;5011784;28;20054;-71
2022/05/08 00:59:07;;;;;;;16.30;6.57;;;14.10;99.90;;;;;;5011551;28;20030;-71
2022/05/08 01:01:33;;;;;;;12.93;5.18;;;14.10;99.90;;;;;;5011560;28;20033;-71
2022/05/08 01:03:59;;;;;;;14.55;5.97;;;14.10;99.90;;;;;;5012159;28;20038;-70
2022/05/08 01:06:26;;;;;;;12.18;6.00;;;14.10;99.90;;;;;;5010629;28;20021;-71
2022/05/08 01:08:54;;;;;;;8.90;4.70;;;14.10;99.90;;;;;;5016851;28;20034;-71
2022/05/08 01:11:21;;;;;;;9.18;4.28;;;14.00;99.90;;;;;;5018182;28;20045;-71
2022/05/08 01:13:47;;;;;;;13.77;4.78;;;14.10;99.90;;;;;;5018502;28;20468;-71
2022/05/08 01:16:18;;;;;;;9.45;4.72;;;14.10;99.90;;;;;;5018126;28;20101;-69
2022/05/08 01:18:45;;;;;;;8.23;4.05;;;14.00;99.90;;;;;;5018714;28;20546;-72
2022/05/08 01:21:14;;;;;;;9.15;4.13;;;14.00;99.90;;;;;;5018649;28;20383;-70
2022/05/08 01:23:41;;;;;;;12.98;5.10;;;14.00;99.90;;;;;;5018325;28;20042;-72
2022/05/08 01:26:07;;;;;;;11.77;4.63;;;14.00;99.90;;;;;;5018253;28;20543;-72
2022/05/08 01:28:33;;;;;;;12.48;4.72;;;14.00;99.90;;;;;;5018021;28;20105;-72
2022/05/08 01:30:59;;;;;;;10.68;4.47;;;14.10;99.90;;;;;;5018064;28;20033;-70
2022/05/08 01:33:25;;;;;;;10.13;4.43;;;14.00;99.90;;;;;;5018136;28;20072;-72
2022/05/08 01:35:51;;;;;;;8.05;4.07;;;14.00;99.90;;;;;;5017855;28;20025;-72
2022/05/08 01:38:20;;;;;;;8.70;4.22;;;14.10;99.90;;;;;;5018286;28;20498;-71
2022/05/08 01:40:45;;;;;;;12.02;5.22;;;14.10;99.90;;;;;;5017886;28;20025;-71
2022/05/08 01:43:13;;;;;;;12.65;4.70;;;14.10;99.80;;;;;;5018035;28;20038;-72
2022/05/08 01:45:39;;;;;;;6.15;4.03;;;14.10;99.90;;;;;;5017856;28;20464;-70
2022/05/08 01:48:22;;;;;;;6.93;3.90;;;14.00;99.90;;;;;;5018188;28;20036;-71
2022/05/08 01:50:50;;;;;;;7.90;4.43;;;14.00;99.50;;;;;;5018019;28;20030;-72
2022/05/08 01:53:18;;;;;;;15.48;5.35;;;14.00;99.60;;;;;;5018042;28;20388;-71
2022/05/08 01:55:45;;;;;;;8.32;4.28;;;14.10;98.90;;;;;;5017936;28;20030;-72
2022/05/08 01:58:12;;;;;;;10.40;4.68;;;14.10;98.90;;;;;;5017707;28;20054;-70
2022/05/08 02:00:38;;;;;;;11.88;4.75;;;14.00;99.80;;;;;;5017730;28;20044;-71
2022/05/08 02:03:05;;;;;;;6.97;3.80;;;14.00;99.30;;;;;;5018263;28;20049;-71
2022/05/08 02:05:32;;;;;;;12.00;4.32;;;14.00;99.20;;;;;;5018522;28;20040;-71
2022/05/08 02:07:59;;;;;;;6.53;4.00;;;14.00;99.00;;;;;;5017882;28;20080;-72
2022/05/08 02:10:25;;;;;;;7.53;3.85;;;14.00;98.80;;;;;;5017859;28;20026;-71
2022/05/08 02:12:51;;;;;;;6.25;3.50;;;14.10;99.20;;;;;;5018077;28;20404;-71
2022/05/08 02:15:21;;;;;;;11.90;4.43;;;14.10;99.90;;;;;;5017944;28;20092;-72
2022/05/08 02:17:47;;;;;;;11.07;4.75;;;14.00;99.90;;;;;;5017793;28;20435;-70
2022/05/08 02:20:13;;;;;;;9.20;4.38;;;14.00;99.60;;;;;;5014112;28;20022;-72
2022/05/08 02:22:39;;;;;;;8.10;4.38;;;14.10;99.90;;;;;;5014732;28;20400;-72
2022/05/08 02:25:06;;;;;;;8.57;4.03;;;14.00;99.90;;;;;;5014716;28;20100;-71
2022/05/08 02:27:37;;;;;;;14.73;4.93;;;14.00;99.90;;;;;;5014393;28;20026;-71
2022/05/08 02:30:05;;;;;;;13.15;7.40;;;14.00;99.90;;;;;;5014310;28;20030;-72
2022/05/08 02:32:31;;;;;;;10.52;4.90;;;14.00;99.90;;;;;;5014424;28;20136;-71
2022/05/08 02:34:57;;;;;;;10.65;4.72;;;14.00;99.90;;;;;;5014394;28;20211;-71
2022/05/08 02:37:23;;;;;;;7.97;4.72;;;14.00;99.90;;;;;;5014318;28;20388;-72
2022/05/08 02:39:49;;;;;;;8.80;4.75;;;14.00;99.90;;;;;;5014439;28;20041;-72
2022/05/08 02:42:15;;;;;;;10.95;5.07;;;14.00;99.90;;;;;;5014360;28;20042;-71
2022/05/08 02:44:41;;;;;;;9.93;4.50;;;14.00;99.90;;;;;;5013971;28;20029;-71
2022/05/08 02:47:07;;;;;;;10.23;5.07;;;14.00;99.90;;;;;;5014159;28;20069;-69
2022/05/08 02:49:33;;;;;;;10.20;4.78;;;14.00;99.90;;;;;;5014250;28;20022;-71
2022/05/08 02:51:58;;;;;;;7.65;4.22;;;14.00;99.90;;;;;;5014129;28;20080;-72
2022/05/08 02:54:24;;;;;;;6.78;3.92;;;14.00;99.90;;;;;;5014318;28;20045;-71
2022/05/08 02:59:34;;;;;;;12.05;4.82;;;14.00;99.90;;;;;;5013955;28;20042;-71
2022/05/08 03:02:00;;;;;;;11.48;4.25;;;13.90;99.90;;;;;;5013269;28;20030;-70
2022/05/08 03:04:26;;;;;;;11.50;4.88;;;13.90;99.90;;;;;;5012581;28;20038;-71
2022/05/08 03:06:51;;;;;;;9.70;4.82;;;14.00;99.90;;;;;;5013785;28;20022;-70
2022/05/08 03:09:17;;;;;;;12.18;4.60;;;13.90;99.90;;;;;;5013718;28;20026;-71
2022/05/08 03:11:43;;;;;;;8.30;4.40;;;13.90;99.90;;;;;;5013224;28;20029;-70
2022/05/08 03:14:09;;;;;;;10.23;4.95;;;13.90;99.90;;;;;;5013237;28;20113;-71
2022/05/08 03:16:35;;;;;;;9.65;4.55;;;13.80;99.90;;;;;;5012527;28;20026;-70
2022/05/08 03:19:01;;;;;;;8.88;4.15;;;13.80;99.90;;;;;;5013370;28;20036;-71
2022/05/08 03:21:27;;;;;;;11.85;5.18;;;13.80;99.90;;;;;;5013060;28;20026;-71
2022/05/08 03:23:53;;;;;;;7.80;4.78;;;13.80;99.90;;;;;;5013490;28;20161;-71
2022/05/08 03:26:22;;;;;;;9.27;4.75;;;13.80;99.90;;;;;;5013159;28;20488;-70
2022/05/08 03:28:48;;;;;;;11.20;5.00;;;13.70;99.90;;;;;;5013141;28;20033;-69
2022/05/08 03:31:14;;;;;;;9.07;4.80;;;13.70;99.90;;;;;;5013001;28;20030;-71
2022/05/08 03:33:40;;;;;;;13.20;5.53;;;13.70;99.90;;;;;;5013161;28;20066;-70
2022/05/08 03:36:10;;;;;;;12.20;4.95;;;13.70;99.90;;;;;;5013245;28;20044;-71
2022/05/08 03:38:44;;;;;;;12.75;5.18;;;13.70;99.90;;;;;;5013021;28;20041;-70
2022/05/08 03:41:15;;;;;;;13.65;4.68;;;13.60;99.90;;;;;;5012906;28;20037;-69
2022/05/08 03:43:45;;;;;;;10.55;5.65;;;13.70;99.90;;;;;;5013037;28;20048;-68
2022/05/08 03:46:13;;;;;;;8.77;4.70;;;13.70;99.90;;;;;;5012853;28;20066;-70
2022/05/08 03:48:39;;;;;;;9.93;5.38;;;13.70;99.90;;;;;;5012984;28;20040;-71
2022/05/08 03:51:05;;;;;;;11.98;6.28;;;13.70;99.90;;;;;;5012384;28;20036;-71
2022/05/08 03:53:31;;;;;;;12.60;6.70;;;13.80;99.90;;;;;;5012975;28;20065;-71
2022/05/08 03:55:58;;;;;;;12.88;6.22;;;13.80;99.90;;;;;;5011292;28;20041;-71
2022/05/08 03:58:26;;;;;;;22.80;7.25;;;13.90;99.90;;;;;;5012433;28;20065;-72
2022/05/08 04:00:53;;;;;;;11.60;6.55;;;14.10;99.90;;;;;;5012219;28;20053;-71
2022/05/08 04:03:19;;;;;;;12.88;6.03;;;14.20;99.90;;;;;;5010842;28;20504;-70
2022/05/08 04:05:45;;;;;;;13.20;7.88;;;14.60;99.90;;;;;;5012203;28;20014;-71
2022/05/08 04:08:10;;;;;;;17.77;7.60;;;15.30;99.90;;;;;;5011747;28;20029;-71
2022/05/08 04:10:36;;;;;;;15.70;8.18;;;15.90;99.90;;;;;;5011991;28;20430;-71
2022/05/08 04:13:02;;;;;;;15.25;7.32;;;16.70;99.90;;;;;;5011969;28;20527;-71
2022/05/08 04:18:12;;;;;;;12.48;7.88;;;17.80;98.70;;;;;;5012114;28;20038;-71
2022/05/08 04:20:38;;;;;;;18.08;7.30;;;18.40;95.80;;;;;;5012392;28;20349;-71
2022/05/08 04:25:52;;;;;;;15.85;7.10;;;19.20;92.90;;;;;;5011888;28;20100;-69
2022/05/08 04:28:19;;;;;;;13.27;7.72;;;19.30;91.70;;;;;;5012367;28;20480;-71
2022/05/08 04:30:48;;;;;;;14.02;7.63;;;19.80;90.60;;;;;;5017486;28;20037;-69
2022/05/08 04:33:14;;;;;;;18.25;8.35;;;19.80;89.80;;;;;;5025551;28;20723;-70
2022/05/08 04:35:40;;;;;;;14.25;7.57;;;20.10;88.90;;;;;;5020952;28;20044;-69
2022/05/08 04:38:06;;;;;;;20.88;7.97;;;19.90;84.40;;;;;;5016358;28;20432;-71
2022/05/08 04:40:32;;;;;;;13.70;8.23;;;19.90;86.80;;;;;;5011704;28;20022;-69
2022/05/08 04:42:57;;;;;;;11.43;6.88;;;20.50;81.70;;;;;;5010190;28;20462;-72
2022/05/08 04:45:23;;;;;;;11.80;7.03;;;21.00;80.80;;;;;;5011364;28;20024;-72
2022/05/08 04:47:49;;;;;;;11.88;7.35;;;21.70;78.40;;;;;;5011987;28;20049;-70
2022/05/08 04:50:15;;;;;;;19.42;11.38;;;21.80;76.10;;;;;;5012054;28;20495;-71
2022/05/08 04:52:41;;;;;;;29.00;16.58;;;22.00;76.60;;;;;;5016240;28;20108;-69
2022/05/08 04:55:07;;;;;;;63.83;48.30;;;22.10;77.80;;;;;;5020052;28;20395;-66
2022/05/08 04:57:33;;;;;;;27.23;18.17;;;22.00;76.50;;;;;;5010204;28;20038;-68
2022/05/08 05:00:00;;;;;;;17.42;9.60;;;22.00;72.60;;;;;;5010877;28;20022;-68
2022/05/08 05:02:26;;;;;;;15.38;8.23;;;20.90;72.40;;;;;;5011333;28;20038;-65
2022/05/08 05:04:52;;;;;;;22.52;10.20;;;20.40;73.70;;;;;;5009982;28;20506;-71
2022/05/08 05:07:18;;;;;;;18.15;7.70;;;20.40;75.70;;;;;;5011054;28;20049;-71
2022/05/08 05:09:44;;;;;;;21.95;8.02;;;20.00;73.60;;;;;;5011341;28;20030;-70
2022/05/08 05:12:10;;;;;;;17.55;9.07;;;19.30;74.20;;;;;;5010782;28;20084;-66
2022/05/08 05:14:36;;;;;;;21.20;9.48;;;19.10;77.20;;;;;;5011502;28;20022;-70
2022/05/08 05:17:02;;;;;;;21.77;9.70;;;18.80;77.70;;;;;;5011187;28;20029;-69
2022/05/08 05:19:28;;;;;;;18.25;8.55;;;18.80;75.70;;;;;;5010878;28;20061;-65
2022/05/08 05:21:54;;;;;;;18.65;8.98;;;18.60;76.60;;;;;;5010988;28;20058;-71
2022/05/08 05:24:20;;;;;;;18.13;8.75;;;18.50;75.30;;;;;;5011262;28;20030;-67
2022/05/08 05:26:46;;;;;;;13.65;7.47;;;18.00;76.00;;;;;;5011085;28;20034;-67
2022/05/08 05:29:11;;;;;;;17.20;7.00;;;18.00;79.50;;;;;;5009920;28;20061;-72
2022/05/08 05:31:37;;;;;;;17.40;8.45;;;18.00;78.90;;;;;;5010925;28;20504;-72
2022/05/08 05:34:03;;;;;;;19.38;7.88;;;18.00;81.00;;;;;;5011746;28;20392;-69
2022/05/08 05:36:29;;;;;;;13.43;7.32;;;18.30;82.10;;;;;;5011484;28;20026;-71
2022/05/08 05:38:55;;;;;;;12.38;7.63;;;18.40;80.00;;;;;;5010377;28;20121;-71
2022/05/08 05:41:21;;;;;;;19.33;6.25;;;18.30;79.70;;;;;;5011443;28;20100;-69
2022/05/08 05:43:46;;;;;;;13.48;4.85;;;18.50;81.70;;;;;;5019257;28;20049;-67
2022/05/08 05:48:56;;;;;;;15.63;6.38;;;19.20;79.00;;;;;;5010924;28;20042;-68
2022/05/08 05:51:22;;;;;;;8.27;4.32;;;19.10;77.00;;;;;;5004489;28;20034;-69
2022/05/08 05:53:48;;;;;;;9.05;4.93;;;18.70;78.30;;;;;;4991234;28;20030;-67
2022/05/08 05:56:14;;;;;;;16.88;5.82;;;18.70;78.80;;;;;;4995116;28;20537;-70
2022/05/08 05:58:40;;;;;;;13.75;5.32;;;18.90;80.00;;;;;;5009716;28;20060;-71
2022/05/08 06:01:06;;;;;;;14.82;5.85;;;18.70;79.50;;;;;;4994921;28;20030;-71
2022/05/08 06:03:35;;;;;;;9.65;4.97;;;18.60;80.60;;;;;;4994611;28;20122;-71
2022/05/08 06:06:00;;;;;;;9.45;4.22;;;18.20;81.20;;;;;;4994822;28;20022;-70
2022/05/08 06:08:26;;;;;;;12.95;6.63;;;18.10;82.70;;;;;;4997714;28;20026;-70
2022/05/08 06:10:52;;;;;;;15.18;6.15;;;18.70;79.40;;;;;;4996747;28;20504;-70
2022/05/08 06:13:18;;;;;;;9.45;5.38;;;19.10;80.00;;;;;;5013742;28;20029;-69
2022/05/08 06:15:44;;;;;;;14.18;7.13;;;19.10;77.00;;;;;;5013247;28;20018;-70
2022/05/08 06:18:10;;;;;;;15.32;8.15;;;18.70;77.50;;;;;;5020188;28;20091;-71
2022/05/08 06:20:36;;;;;;;11.95;6.18;;;18.70;77.60;;;;;;5034405;28;20021;-72
2022/05/08 06:23:01;;;;;;;14.63;5.75;;;18.40;79.00;;;;;;5015406;28;20034;-72
2022/05/08 06:25:31;;;;;;;10.35;5.38;;;18.50;80.90;;;;;;5013271;28;20022;-64
2022/05/08 06:27:56;;;;;;;8.85;4.40;;;18.00;79.90;;;;;;5013374;28;20038;-71
2022/05/08 06:30:22;;;;;;;17.73;4.57;;;18.10;79.20;;;;;;5012851;28;20028;-69
2022/05/08 06:32:48;;;;;;;9.85;3.90;;;18.50;79.20;;;;;;5010474;28;20506;-70
2022/05/08 06:35:14;;;;;;;9.35;4.10;;;18.60;78.50;;;;;;5013759;28;20025;-69
2022/05/08 06:37:40;;;;;;;9.68;4.82;;;18.80;78.70;;;;;;5013828;28;20038;-70
2022/05/08 06:40:06;;;;;;;12.60;4.95;;;18.90;79.00;;;;;;5014278;28;20017;-69
2022/05/08 06:42:32;;;;;;;9.25;4.68;;;19.10;78.10;;;;;;5013440;28;20121;-68
2022/05/08 06:45:02;;;;;;;8.40;4.57;;;19.10;77.40;;;;;;4996126;28;20476;-69
2022/05/08 06:47:28;;;;;;;10.60;5.22;;;19.40;76.90;;;;;;5014029;28;20077;-69
2022/05/08 06:49:54;;;;;;;10.80;5.82;;;19.50;77.80;;;;;;5013896;28;20065;-68
2022/05/08 06:52:20;;;;;;;11.05;5.05;;;19.90;78.30;;;;;;5013928;28;20034;-67
2022/05/08 06:54:47;;;;;;;14.73;6.13;;;20.00;75.30;;;;;;5012748;28;20045;-68
2022/05/08 06:57:12;;;;;;;12.73;6.00;;;20.20;75.50;;;;;;5020458;28;20033;-70
2022/05/08 07:02:23;;;;;;;11.30;5.40;;;19.90;74.50;;;;;;5006290;28;20472;-71
2022/05/08 07:04:48;;;;;;;13.00;5.55;;;20.10;75.30;;;;;;5002307;28;20100;-72
2022/05/08 07:07:14;;;;;;;9.80;4.65;;;20.00;74.00;;;;;;5011694;28;20137;-72
2022/05/08 07:09:42;;;;;;;12.05;5.65;;;20.10;74.00;;;;;;5012276;28;20030;-72
2022/05/08 07:12:09;;;;;;;48.60;18.65;;;20.50;73.10;;;;;;5008494;28;20019;-70
2022/05/08 07:14:35;;;;;;;10.52;5.30;;;20.60;74.80;;;;;;4993214;28;20465;-71
2022/05/08 07:17:00;;;;;;;12.00;5.60;;;20.40;73.10;;;;;;4993072;28;20030;-73
2022/05/08 07:19:27;;;;;;;10.02;4.57;;;20.30;72.00;;;;;;5004675;28;20464;-70
2022/05/08 07:21:53;;;;;;;10.60;4.68;;;20.40;73.60;;;;;;5012935;28;20037;-72
2022/05/08 07:24:19;;;;;;;14.95;5.13;;;20.50;71.20;;;;;;5012902;28;20403;-72
2022/05/08 07:26:45;;;;;;;11.70;5.05;;;20.70;71.70;;;;;;5013111;28;20038;-72
2022/05/08 07:29:11;;;;;;;10.70;5.88;;;20.70;69.90;;;;;;5020704;28;20040;-71
2022/05/08 07:31:38;;;;;;;8.05;4.07;;;20.40;69.90;;;;;;5005242;28;20026;-73
2022/05/08 07:36:48;;;;;;;8.43;4.60;;;20.20;68.60;;;;;;5011664;28;20439;-72
2022/05/08 07:39:14;;;;;;;11.68;5.72;;;20.80;70.10;;;;;;5011821;28;20034;-73
2022/05/08 07:41:40;;;;;;;10.77;5.15;;;20.80;68.20;;;;;;5013171;28;20030;-73
2022/05/08 07:44:06;;;;;;;9.80;4.85;;;21.30;69.30;;;;;;5011916;28;20138;-72
2022/05/08 07:46:32;;;;;;;8.60;4.57;;;21.20;67.20;;;;;;5013043;28;20085;-69
2022/05/08 07:48:58;;;;;;;14.20;5.57;;;21.30;69.30;;;;;;5012624;28;20033;-71
2022/05/08 07:51:24;;;;;;;16.13;5.28;;;21.30;68.50;;;;;;5012922;28;20026;-70
2022/05/08 07:53:50;;;;;;;9.55;4.72;;;21.30;68.50;;;;;;5012738;28;20033;-70
2022/05/08 07:56:16;;;;;;;10.55;5.45;;;21.80;69.90;;;;;;5013046;28;20026;-71
2022/05/08 07:58:42;;;;;;;12.88;4.88;;;21.80;69.60;;;;;;5012424;28;20038;-71
2022/05/08 08:01:07;;;;;;;7.07;4.18;;;21.50;68.00;;;;;;5012893;28;20021;-69
2022/05/08 08:03:34;;;;;;;7.47;4.20;;;21.50;68.20;;;;;;5012642;28;20042;-70
2022/05/08 08:06:01;;;;;;;9.02;3.85;;;21.50;68.10;;;;;;5012642;28;20121;-68
2022/05/08 08:08:28;;;;;;;9.38;4.15;;;21.40;69.00;;;;;;5012329;28;20030;-69
2022/05/08 08:10:58;;;;;;;23.75;4.85;;;21.10;68.60;;;;;;5012585;28;20013;-72
2022/05/08 08:13:26;;;;;;;8.98;3.83;;;21.70;68.50;;;;;;5011864;28;20026;-70
2022/05/08 08:15:53;;;;;;;8.00;3.63;;;21.50;69.20;;;;;;5012388;28;20100;-70
2022/05/08 08:18:19;;;;;;;7.35;3.67;;;21.80;67.40;;;;;;5008464;28;20093;-70
2022/05/08 08:20:45;;;;;;;13.07;4.40;;;21.60;68.40;;;;;;5007659;28;20482;-70
2022/05/08 08:23:12;;;;;;;8.80;4.25;;;21.90;69.50;;;;;;5011747;28;20042;-69
2022/05/08 08:25:39;;;;;;;12.88;5.28;;;22.40;70.70;;;;;;5012438;28;20076;-70
2022/05/08 08:28:06;;;;;;;13.68;4.93;;;22.50;69.40;;;;;;5011999;28;20042;-70
2022/05/08 08:30:31;;;;;;;12.13;4.35;;;23.10;68.40;;;;;;5012275;28;20101;-70
2022/05/08 08:32:57;;;;;;;7.60;3.75;;;23.00;65.40;;;;;;5012468;28;20447;-70
2022/05/08 08:35:24;;;;;;;7.95;3.70;;;23.20;67.10;;;;;;5012398;28;20485;-70
2022/05/08 08:37:50;;;;;;;6.20;3.50;;;23.20;65.10;;;;;;5012000;28;20034;-72
2022/05/08 08:40:16;;;;;;;8.30;4.45;;;23.10;67.60;;;;;;5012138;28;20052;-69
2022/05/08 08:42:42;;;;;;;8.20;4.43;;;23.20;66.10;;;;;;5011844;28;20562;-70
2022/05/08 08:48:03;;;;;;;9.10;4.60;;;23.00;64.70;;;;;;5011364;28;20041;-69
2022/05/08 08:50:32;;;;;;;9.98;4.63;;;23.40;66.70;;;;;;5011108;28;20018;-71
2022/05/08 08:52:59;;;;;;;9.25;4.68;;;23.40;65.90;;;;;;5011977;28;20091;-71
2022/05/08 08:55:26;;;;;;;11.27;5.25;;;23.50;65.30;;;;;;5011602;28;20070;-70
2022/05/08 08:57:52;;;;;;;12.57;6.32;;;23.10;66.80;;;;;;5011283;28;20026;-69
2022/05/08 09:00:18;;;;;;;9.05;4.50;;;22.70;65.40;;;;;;5020222;28;20383;-70
2022/05/08 09:02:47;;;;;;;8.75;4.88;;;22.90;65.50;;;;;;5031187;28;20069;-71
2022/05/08 09:05:13;;;;;;;8.68;4.40;;;22.80;64.60;;;;;;5028135;28;20037;-71
2022/05/08 09:07:46;;;;;;;10.27;4.70;;;22.90;67.20;;;;;;5012043;28;20026;-68
2022/05/08 09:10:18;;;;;;;9.38;4.90;;;22.90;66.10;;;;;;5011545;28;20473;-70
2022/05/08 09:12:59;;;;;;;;;;;23.10;66.30;;;;;;5011580;28;20026;-71
2022/05/08 09:15:37;;;;;;;10.77;4.07;;;23.10;65.70;;;;;;5011907;28;20008;-70
2022/05/08 09:18:04;;;;;;;7.43;4.25;;;23.00;65.40;;;;;;5011592;28;20049;-70
2022/05/08 09:20:35;;;;;;;8.15;4.57;;;23.20;67.00;;;;;;5011631;28;20100;-69
2022/05/08 09:23:04;;;;;;;7.35;4.18;;;23.40;65.20;;;;;;5011680;28;20042;-69
2022/05/08 09:25:52;;;;;;;7.15;4.00;;;23.60;63.90;;;;;;5011598;28;20187;-70
2022/05/08 09:28:28;;;;;;;7.97;4.43;;;23.40;64.50;;;;;;5011399;28;20033;-69
2022/05/08 09:30:57;;;;;;;7.68;4.80;;;23.50;64.30;;;;;;5015598;28;20064;-70
2022/05/08 09:33:51;;;;;;;8.40;4.22;;;23.10;64.60;;;;;;5015507;28;20105;-68
2022/05/08 09:36:18;;;;;;;9.95;4.80;;;23.40;65.40;;;;;;5015146;28;20022;-68
2022/05/08 09:38:47;;;;;;;8.57;4.32;;;23.10;63.80;;;;;;5015281;28;20041;-71
2022/05/08 09:41:27;;;;;;;8.00;3.42;;;23.40;65.80;;;;;;5015301;28;20030;-70
2022/05/08 09:43:54;;;;;;;10.25;3.90;;;23.10;63.20;;;;;;5015175;28;20053;-68
2022/05/08 09:46:21;;;;;;;8.30;3.88;;;22.90;64.30;;;;;;5014464;28;20041;-70
2022/05/08 09:48:48;;;;;;;9.88;3.67;;;22.90;63.70;;;;;;5015093;28;20042;-69
2022/05/08 09:51:15;;;;;;;9.25;3.97;;;23.30;65.40;;;;;;5015697;28;20049;-69
2022/05/08 09:53:43;;;;;;;14.98;4.03;;;23.50;64.50;;;;;;5015196;28;20033;-70
2022/05/08 09:56:11;;;;;;;9.45;4.10;;;23.70;64.30;;;;;;5015011;28;20033;-69
2022/05/08 09:58:41;;;;;;;7.45;3.50;;;23.60;62.00;;;;;;5014871;28;20033;-69
2022/05/08 10:01:07;;;;;;;9.10;3.45;;;23.30;61.00;;;;;;5014802;28;20049;-69
2022/05/08 10:03:34;;;;;;;7.10;3.22;;;23.60;63.20;;;;;;5014774;28;20454;-68
2022/05/08 10:06:00;;;;;;;8.98;3.47;;;23.50;60.90;;;;;;5014615;28;20108;-68
2022/05/08 10:08:35;;;;;;;7.00;3.85;;;23.80;63.10;;;;;;5014698;28;20468;-71
2022/05/08 10:13:57;;;;;;;13.35;4.20;;;23.90;62.50;;;;;;5014749;28;20018;-70
2022/05/08 10:16:49;;;;;;;12.82;4.28;;;24.00;63.30;;;;;;5014577;28;20041;-70
2022/05/08 10:19:22;;;;;;;8.90;4.20;;;24.00;61.80;;;;;;5014827;28;20030;-69
2022/05/08 10:22:02;;;;;;;;;;;24.10;62.50;;;;;;5013458;28;20034;-70
2022/05/08 10:24:42;;;;;;;11.43;3.80;;;24.00;60.40;;;;;;5014449;28;20011;-69
2022/05/08 10:27:14;;;;;;;11.10;3.90;;;24.20;61.40;;;;;;5014672;28;20061;-71
2022/05/08 10:30:03;;;;;;;6.88;3.45;;;24.30;62.30;;;;;;5014238;28;20034;-70
2022/05/08 10:32:35;;;;;;;8.43;3.45;;;24.30;60.70;;;;;;5010591;28;20492;-71
2022/05/08 10:35:09;;;;;;;11.05;3.47;;;24.20;61.40;;;;;;5014470;28;20030;-70
2022/05/08 10:37:43;;;;;;;10.95;3.17;;;24.30;60.10;;;;;;5014060;28;20047;-70
2022/05/08 10:40:24;;;;;;;7.20;2.72;;;24.10;59.60;;;;;;5013150;28;20371;-69
2022/05/08 10:42:55;;;;;;;17.05;4.28;;;24.20;59.30;;;;;;5013885;28;20042;-68
2022/05/08 10:45:33;;;;;;;6.97;3.30;;;24.20;60.00;;;;;;5013966;28;20033;-70
2022/05/08 10:48:08;;;;;;;9.45;3.70;;;24.30;61.10;;;;;;5014285;28;20406;-69
2022/05/08 10:50:35;;;;;;;10.20;2.90;;;24.20;60.00;;;;;;5013872;28;20032;-68
2022/05/08 10:53:01;;;;;;;15.55;3.28;;;24.00;59.90;;;;;;5013739;28;20026;-69
2022/05/08 10:55:28;;;;;;;7.60;3.60;;;24.10;58.40;;;;;;5014144;28;20084;-70
2022/05/08 10:57:55;;;;;;;8.07;3.58;;;24.20;60.80;;;;;;5013568;28;20112;-70
2022/05/08 11:00:23;;;;;;;9.07;3.88;;;24.40;60.10;;;;;;5013490;28;20030;-68
2022/05/08 11:02:55;;;;;;;7.35;3.30;;;24.40;59.00;;;;;;5013522;28;20046;-68
2022/05/08 11:05:40;;;;;;;6.18;2.95;;;24.60;61.30;;;;;;5013597;28;20034;-68
2022/05/08 11:08:08;;;;;;;8.20;3.40;;;24.20;59.20;;;;;;5013641;28;20052;-68
2022/05/08 11:10:36;;;;;;;6.25;3.13;;;24.10;58.80;;;;;;5013567;28;20022;-68
2022/05/08 11:13:09;;;;;;;4.65;2.70;;;24.00;58.80;;;;;;5013261;28;20084;-68
2022/05/08 11:15:39;;;;;;;9.68;3.80;;;24.00;58.10;;;;;;5013771;28;20088;-69
2022/05/08 11:18:18;;;;;;;7.03;2.80;;;24.00;58.30;;;;;;5013757;28;20096;-68
2022/05/08 11:20:45;;;;;;;11.27;3.50;;;24.20;59.40;;;;;;5013456;28;20026;-68
2022/05/08 11:23:12;;;;;;;6.10;3.33;;;24.00;60.40;;;;;;5012967;28;20030;-69
2022/05/08 11:25:39;;;;;;;5.55;3.08;;;24.30;61.60;;;;;;5014013;28;20238;-70
2022/05/08 11:28:04;;;;;;;6.57;3.00;;;24.40;60.40;;;;;;5013085;28;20030;-70
2022/05/08 11:30:33;;;;;;;4.43;3.03;;;24.60;60.20;;;;;;5013260;28;20078;-70
2022/05/08 11:36:06;;;;;;;5.53;3.25;;;24.60;60.30;;;;;;5013050;28;20460;-69
2022/05/08 11:38:32;;;;;;;8.32;3.85;;;24.50;58.50;;;;;;5012622;28;20088;-70
2022/05/08 11:41:01;;;;;;;6.90;3.42;;;24.40;58.30;;;;;;5013204;28;20014;-70
2022/05/08 11:43:44;;;;;;;9.38;3.45;;;24.40;57.50;;;;;;5012702;28;20044;-69
2022/05/08 11:46:15;;;;;;;4.80;3.08;;;24.50;58.80;;;;;;5013088;28;20046;-69
2022/05/08 11:48:46;;;;;;;7.07;3.55;;;24.60;59.60;;;;;;5013453;28;20064;-69
2022/05/08 11:51:14;;;;;;;8.18;3.35;;;24.50;59.00;;;;;;5012936;28;20026;-70
2022/05/08 11:53:41;;;;;;;6.35;3.88;;;24.40;58.80;;;;;;5012654;28;20049;-70
2022/05/08 11:56:29;;;;;;;9.10;3.60;;;24.80;61.90;;;;;;5012098;28;20030;-69
2022/05/08 11:58:57;;;;;;;7.82;3.78;;;24.60;59.10;;;;;;5012355;28;20037;-69
2022/05/08 12:01:34;;;;;;;10.70;3.42;;;24.50;57.00;;;;;;5012779;28;20022;-70
2022/05/08 12:04:21;;;;;;;6.72;3.58;;;24.50;59.90;;;;;;5012832;28;20049;-70
2022/05/08 12:07:05;;;;;;;8.43;3.72;;;24.60;58.10;;;;;;5012868;28;20161;-69
2022/05/08 12:09:47;;;;;;;8.02;3.33;;;24.60;57.40;;;;;;5012642;28;20037;-70
2022/05/08 12:12:25;;;;;;;6.63;4.35;;;24.60;56.90;;;;;;5012733;28;20037;-69
2022/05/08 12:14:50;;;;;;;6.88;3.38;;;24.30;56.40;;;;;;5012400;28;20116;-71
2022/05/08 12:17:16;;;;;;;14.63;4.68;;;24.60;57.00;;;;;;5012637;28;20414;-71
2022/05/08 12:19:50;;;;;;;7.93;4.00;;;24.60;56.90;;;;;;5012387;28;20050;-71
2022/05/08 12:22:18;;;;;;;6.45;3.90;;;24.70;56.70;;;;;;5011956;28;20030;-71
2022/05/08 12:24:44;;;;;;;9.45;3.70;;;24.80;57.90;;;;;;5012129;28;20032;-71
2022/05/08 12:27:09;;;;;;;8.60;3.80;;;24.70;56.50;;;;;;5012184;28;20022;-71
2022/05/08 12:29:36;;;;;;;4.80;3.00;;;24.50;56.00;;;;;;5012196;28;20064;-70
2022/05/08 12:32:01;;;;;;;7.20;3.35;;;24.70;57.30;;;;;;5012207;28;20022;-70
2022/05/08 12:34:29;;;;;;;7.10;3.30;;;24.60;57.30;;;;;;5012175;28;20037;-71
2022/05/08 12:36:55;;;;;;;6.13;3.22;;;24.50;57.20;;;;;;5012101;28;20026;-71
2022/05/08 12:39:20;;;;;;;5.07;3.08;;;24.30;57.80;;;;;;5012178;28;20395;-69
2022/05/08 12:41:46;;;;;;;13.40;3.67;;;24.30;59.00;;;;;;5011945;28;20082;-70
2022/05/08 12:44:13;;;;;;;9.50;3.53;;;24.30;57.70;;;;;;5011652;28;20041;-70
2022/05/08 12:46:39;;;;;;;8.00;3.67;;;24.10;59.00;;;;;;5011996;28;20150;-71
2022/05/08 12:49:05;;;;;;;7.80;3.40;;;24.50;58.80;;;;;;5012172;28;20065;-71
2022/05/08 12:51:35;;;;;;;7.88;3.42;;;24.60;58.60;;;;;;5012087;28;20112;-70
2022/05/08 12:54:02;;;;;;;5.43;3.03;;;24.40;58.00;;;;;;5011692;28;20040;-70
2022/05/08 12:56:30;;;;;;;6.45;3.60;;;24.50;59.30;;;;;;5012169;28;20022;-71
2022/05/08 13:01:41;;;;;;;5.97;3.33;;;24.30;59.20;;;;;;5011926;28;20099;-72
2022/05/08 13:04:07;;;;;;;5.80;3.15;;;24.30;59.40;;;;;;5010837;28;20604;-71
2022/05/08 13:06:34;;;;;;;8.18;2.97;;;24.20;58.70;;;;;;5011239;28;20036;-70
2022/05/08 13:09:01;;;;;;;8.27;3.83;;;24.30;59.40;;;;;;5011099;28;20196;-70
2022/05/08 13:11:27;;;;;;;11.18;3.17;;;24.50;59.90;;;;;;5011249;28;20049;-72